sensor_id;sensor_type;location;lat;lon;timestamp;pressure;altitude;pressure_sealevel;temperature
78905;BMP280;68291;49.602;8.722;2023-03-01T09:01:22;100285.66;;;9.29
78905;BMP280;68291;49.602;8.722;2023-03-01T09:04:51;100279.06;;;9.50
78905;BMP280;68291;49.602;8.722;2023-03-01T09:07:23;100267.22;;;9.44
78905;BMP280;68291;49.602;8.722;2023-03-01T09:10:04;100265.56;;;9.43
78905;BMP280;68291;49.602;8.722;2023-03-01T09:12:37;100272.03;;;9.56
78905;BMP280;68291;49.602;8.722;2023-03-01T09:15:08;100273.00;;;9.52
78905;BMP280;68291;49.602;8.722;2023-03-01T09:17:38;100268.19;;;9.40
78905;BMP280;68291;49.602;8.722;2023-03-01T09:20:10;100254.94;;;9.25
78905;BMP280;68291;49.602;8.722;2023-03-01T09:22:40;100254.41;;;9.14
78905;BMP280;68291;49.602;8.722;2023-03-01T09:25:11;100257.38;;;9.01
78905;BMP280;68291;49.602;8.722;2023-03-01T09:27:44;100250.97;;;8.85
78905;BMP280;68291;49.602;8.722;2023-03-01T09:30:17;100257.22;;;8.75
78905;BMP280;68291;49.602;8.722;2023-03-01T09:32:53;100242.94;;;8.65
78905;BMP280;68291;49.602;8.722;2023-03-01T09:35:24;100239.63;;;8.62
78905;BMP280;68291;49.602;8.722;2023-03-01T09:37:55;100238.78;;;8.61
78905;BMP280;68291;49.602;8.722;2023-03-01T09:40:31;100242.22;;;8.60
78905;BMP280;68291;49.602;8.722;2023-03-01T09:43:25;100239.66;;;8.60
78905;BMP280;68291;49.602;8.722;2023-03-01T09:46:04;100246.66;;;8.55
78905;BMP280;68291;49.602;8.722;2023-03-01T09:48:43;100253.50;;;8.55
78905;BMP280;68291;49.602;8.722;2023-03-01T09:51:31;100253.41;;;8.58
78905;BMP280;68291;49.602;8.722;2023-03-01T09:54:10;100250.75;;;8.61
78905;BMP280;68291;49.602;8.722;2023-03-01T09:57:13;100257.50;;;8.65
78905;BMP280;68291;49.602;8.722;2023-03-01T10:00:19;100260.03;;;8.66
78905;BMP280;68291;49.602;8.722;2023-03-01T10:03:03;100248.84;;;8.69
78905;BMP280;68291;49.602;8.722;2023-03-01T10:06:02;100251.44;;;8.67
78905;BMP280;68291;49.602;8.722;2023-03-01T10:08:56;100233.44;;;8.69
78905;BMP280;68291;49.602;8.722;2023-03-01T10:11:35;100238.56;;;8.69
78905;BMP280;68291;49.602;8.722;2023-03-01T10:14:27;100235.84;;;8.75
78905;BMP280;68291;49.602;8.722;2023-03-01T10:17:23;100238.16;;;8.84
78905;BMP280;68291;49.602;8.722;2023-03-01T10:20:13;100235.38;;;8.91
78905;BMP280;68291;49.602;8.722;2023-03-01T10:22:49;100228.34;;;8.97
78905;BMP280;68291;49.602;8.722;2023-03-01T10:26:02;100228.13;;;9.06
78905;BMP280;68291;49.602;8.722;2023-03-01T10:29:01;100221.00;;;9.14
78905;BMP280;68291;49.602;8.722;2023-03-01T10:31:45;100218.38;;;9.17
78905;BMP280;68291;49.602;8.722;2023-03-01T10:34:30;100221.50;;;9.26
78905;BMP280;68291;49.602;8.722;2023-03-01T10:37:12;100209.34;;;9.31
78905;BMP280;68291;49.602;8.722;2023-03-01T10:40:02;100214.03;;;9.46
78905;BMP280;68291;49.602;8.722;2023-03-01T10:42:50;100203.59;;;9.52
78905;BMP280;68291;49.602;8.722;2023-03-01T10:45:35;100189.53;;;9.62
78905;BMP280;68291;49.602;8.722;2023-03-01T10:48:15;100192.72;;;9.70
78905;BMP280;68291;49.602;8.722;2023-03-01T10:51:06;100185.69;;;9.75
78905;BMP280;68291;49.602;8.722;2023-03-01T10:53:50;100186.47;;;9.78
78905;BMP280;68291;49.602;8.722;2023-03-01T10:56:22;100182.94;;;9.81
78905;BMP280;68291;49.602;8.722;2023-03-01T10:59:33;100172.63;;;9.82
78905;BMP280;68291;49.602;8.722;2023-03-01T11:02:21;100173.25;;;9.89
78905;BMP280;68291;49.602;8.722;2023-03-01T11:05:03;100173.94;;;9.95
78905;BMP280;68291;49.602;8.722;2023-03-01T11:07:58;100159.16;;;10.01
78905;BMP280;68291;49.602;8.722;2023-03-01T11:10:40;100154.69;;;10.06
78905;BMP280;68291;49.602;8.722;2023-03-01T11:13:17;100148.53;;;10.10
78905;BMP280;68291;49.602;8.722;2023-03-01T11:16:02;100143.88;;;10.21
78905;BMP280;68291;49.602;8.722;2023-03-01T11:18:59;100145.53;;;10.22
78905;BMP280;68291;49.602;8.722;2023-03-01T11:21:35;100146.25;;;10.27
78905;BMP280;68291;49.602;8.722;2023-03-01T11:24:14;100141.66;;;10.35
78905;BMP280;68291;49.602;8.722;2023-03-01T11:26:52;100145.59;;;10.45
78905;BMP280;68291;49.602;8.722;2023-03-01T11:29:35;100141.03;;;10.53
78905;BMP280;68291;49.602;8.722;2023-03-01T11:32:31;100138.00;;;10.64
78905;BMP280;68291;49.602;8.722;2023-03-01T11:35:21;100137.91;;;10.67
78905;BMP280;68291;49.602;8.722;2023-03-01T11:38:21;100122.34;;;10.70
78905;BMP280;68291;49.602;8.722;2023-03-01T11:41:06;100130.72;;;10.75
78905;BMP280;68291;49.602;8.722;2023-03-01T11:43:52;100118.75;;;10.74
78905;BMP280;68291;49.602;8.722;2023-03-01T11:46:51;100117.84;;;10.75
78905;BMP280;68291;49.602;8.722;2023-03-01T11:49:53;100104.13;;;10.75
78905;BMP280;68291;49.602;8.722;2023-03-01T11:52:50;100106.09;;;10.68
78905;BMP280;68291;49.602;8.722;2023-03-01T11:55:50;100093.09;;;10.71
78905;BMP280;68291;49.602;8.722;2023-03-01T11:58:56;100092.88;;;10.77
78905;BMP280;68291;49.602;8.722;2023-03-01T12:02:01;100092.81;;;10.79
78905;BMP280;68291;49.602;8.722;2023-03-01T12:05:07;100091.09;;;10.79
78905;BMP280;68291;49.602;8.722;2023-03-01T12:08:03;100091.22;;;10.76
78905;BMP280;68291;49.602;8.722;2023-03-01T12:10:48;100085.06;;;10.80
78905;BMP280;68291;49.602;8.722;2023-03-01T12:14:07;100074.44;;;10.88
78905;BMP280;68291;49.602;8.722;2023-03-01T12:17:20;100063.09;;;10.93
78905;BMP280;68291;49.602;8.722;2023-03-01T12:20:34;100055.94;;;10.99
78905;BMP280;68291;49.602;8.722;2023-03-01T12:26:54;100042.53;;;11.13
78905;BMP280;68291;49.602;8.722;2023-03-01T12:29:40;100039.03;;;11.14
78905;BMP280;68291;49.602;8.722;2023-03-01T12:32:47;100032.75;;;11.21
78905;BMP280;68291;49.602;8.722;2023-03-01T12:36:02;100026.66;;;11.23
78905;BMP280;68291;49.602;8.722;2023-03-01T12:38:42;100015.59;;;11.20
78905;BMP280;68291;49.602;8.722;2023-03-01T12:41:46;100012.44;;;11.13
78905;BMP280;68291;49.602;8.722;2023-03-01T12:44:43;100012.97;;;11.21
78905;BMP280;68291;49.602;8.722;2023-03-01T12:47:46;100007.44;;;11.30
78905;BMP280;68291;49.602;8.722;2023-03-01T12:50:28;100003.53;;;11.41
78905;BMP280;68291;49.602;8.722;2023-03-01T12:53:19;99988.88;;;11.43
78905;BMP280;68291;49.602;8.722;2023-03-01T12:56:06;99987.59;;;11.53
78905;BMP280;68291;49.602;8.722;2023-03-01T12:59:00;99975.19;;;11.61
78905;BMP280;68291;49.602;8.722;2023-03-01T13:02:02;99981.50;;;11.74
78905;BMP280;68291;49.602;8.722;2023-03-01T13:04:57;99967.31;;;11.84
78905;BMP280;68291;49.602;8.722;2023-03-01T13:07:43;99968.47;;;11.97
78905;BMP280;68291;49.602;8.722;2023-03-01T13:10:49;99958.38;;;12.10
78905;BMP280;68291;49.602;8.722;2023-03-01T13:13:36;99953.72;;;12.18
78905;BMP280;68291;49.602;8.722;2023-03-01T13:16:41;99959.28;;;12.28
78905;BMP280;68291;49.602;8.722;2023-03-01T13:19:24;99955.59;;;12.33
78905;BMP280;68291;49.602;8.722;2023-03-01T13:22:30;99956.84;;;12.43
78905;BMP280;68291;49.602;8.722;2023-03-01T13:25:18;99945.41;;;12.48
78905;BMP280;68291;49.602;8.722;2023-03-01T13:32:22;99945.13;;;12.54
78905;BMP280;68291;49.602;8.722;2023-03-01T13:35:43;99922.97;;;12.67
78905;BMP280;68291;49.602;8.722;2023-03-01T13:38:46;99933.69;;;12.76
78905;BMP280;68291;49.602;8.722;2023-03-01T13:41:52;99933.91;;;12.90
78905;BMP280;68291;49.602;8.722;2023-03-01T13:44:34;99923.59;;;13.24
78905;BMP280;68291;49.602;8.722;2023-03-01T13:47:39;99913.13;;;13.75
78905;BMP280;68291;49.602;8.722;2023-03-01T13:50:29;99907.22;;;14.36
78905;BMP280;68291;49.602;8.722;2023-03-01T13:53:19;99901.06;;;14.98
78905;BMP280;68291;49.602;8.722;2023-03-01T13:56:15;99907.19;;;15.55
78905;BMP280;68291;49.602;8.722;2023-03-01T13:58:54;99894.81;;;16.15
78905;BMP280;68291;49.602;8.722;2023-03-01T14:01:30;99887.72;;;16.71
78905;BMP280;68291;49.602;8.722;2023-03-01T14:04:26;99895.69;;;17.20
78905;BMP280;68291;49.602;8.722;2023-03-01T14:07:16;99887.94;;;17.57
78905;BMP280;68291;49.602;8.722;2023-03-01T14:10:14;99881.06;;;17.93
78905;BMP280;68291;49.602;8.722;2023-03-01T14:13:02;99874.84;;;18.31
78905;BMP280;68291;49.602;8.722;2023-03-01T14:16:04;99872.66;;;18.61
78905;BMP280;68291;49.602;8.722;2023-03-01T14:19:04;99866.22;;;19.00
78905;BMP280;68291;49.602;8.722;2023-03-01T14:22:22;99860.78;;;19.37
78905;BMP280;68291;49.602;8.722;2023-03-01T14:25:19;99867.47;;;19.63
78905;BMP280;68291;49.602;8.722;2023-03-01T14:28:02;99858.97;;;19.83
78905;BMP280;68291;49.602;8.722;2023-03-01T14:30:43;99858.34;;;20.01
78905;BMP280;68291;49.602;8.722;2023-03-01T14:33:24;99860.75;;;19.93
78905;BMP280;68291;49.602;8.722;2023-03-01T14:36:06;99854.09;;;19.89
78905;BMP280;68291;49.602;8.722;2023-03-01T14:39:17;99855.03;;;19.99
78905;BMP280;68291;49.602;8.722;2023-03-01T14:42:02;99855.25;;;20.18
78905;BMP280;68291;49.602;8.722;2023-03-01T14:44:55;99858.31;;;20.33
78905;BMP280;68291;49.602;8.722;2023-03-01T14:47:45;99856.91;;;20.40
78905;BMP280;68291;49.602;8.722;2023-03-01T14:50:26;99848.47;;;20.37
78905;BMP280;68291;49.602;8.722;2023-03-01T14:53:02;99850.81;;;20.40
78905;BMP280;68291;49.602;8.722;2023-03-01T14:56:01;99852.47;;;20.52
78905;BMP280;68291;49.602;8.722;2023-03-01T14:59:03;99851.22;;;20.77
78905;BMP280;68291;49.602;8.722;2023-03-01T15:01:50;99847.31;;;20.72
78905;BMP280;68291;49.602;8.722;2023-03-01T15:04:27;99841.47;;;20.79
78905;BMP280;68291;49.602;8.722;2023-03-01T15:07:14;99844.53;;;20.84
78905;BMP280;68291;49.602;8.722;2023-03-01T15:09:55;99842.56;;;20.97
78905;BMP280;68291;49.602;8.722;2023-03-01T15:12:43;99848.97;;;21.04
78905;BMP280;68291;49.602;8.722;2023-03-01T15:15:38;99851.22;;;21.28
78905;BMP280;68291;49.602;8.722;2023-03-01T15:18:29;99852.94;;;21.50
78905;BMP280;68291;49.602;8.722;2023-03-01T15:21:21;99860.72;;;21.61
78905;BMP280;68291;49.602;8.722;2023-03-01T15:23:57;99862.66;;;21.68
78905;BMP280;68291;49.602;8.722;2023-03-01T15:26:44;99870.66;;;21.66
78905;BMP280;68291;49.602;8.722;2023-03-01T15:29:33;99872.13;;;21.60
78905;BMP280;68291;49.602;8.722;2023-03-01T15:32:30;99869.50;;;21.60
78905;BMP280;68291;49.602;8.722;2023-03-01T15:35:41;99875.38;;;21.72
78905;BMP280;68291;49.602;8.722;2023-03-01T15:38:30;99873.75;;;21.71
78905;BMP280;68291;49.602;8.722;2023-03-01T15:41:25;99875.66;;;21.69
78905;BMP280;68291;49.602;8.722;2023-03-01T15:44:14;99869.00;;;21.65
78905;BMP280;68291;49.602;8.722;2023-03-01T15:46:58;99875.97;;;21.56
78905;BMP280;68291;49.602;8.722;2023-03-01T15:49:51;99881.69;;;21.61
78905;BMP280;68291;49.602;8.722;2023-03-01T15:52:32;99878.00;;;21.72
78905;BMP280;68291;49.602;8.722;2023-03-01T15:55:23;99880.91;;;21.69
78905;BMP280;68291;49.602;8.722;2023-03-01T15:58:15;99879.94;;;21.50
78905;BMP280;68291;49.602;8.722;2023-03-01T16:00:55;99874.41;;;21.44
78905;BMP280;68291;49.602;8.722;2023-03-01T16:03:40;99878.34;;;21.38
78905;BMP280;68291;49.602;8.722;2023-03-01T16:06:18;99889.66;;;21.28
78905;BMP280;68291;49.602;8.722;2023-03-01T16:08:56;99872.16;;;21.08
78905;BMP280;68291;49.602;8.722;2023-03-01T16:11:39;99882.28;;;20.82
78905;BMP280;68291;49.602;8.722;2023-03-01T16:14:26;99877.34;;;20.35
78905;BMP280;68291;49.602;8.722;2023-03-01T16:17:24;99884.72;;;19.76
78905;BMP280;68291;49.602;8.722;2023-03-01T16:20:22;99887.28;;;19.10
78905;BMP280;68291;49.602;8.722;2023-03-01T16:23:01;99895.56;;;18.45
78905;BMP280;68291;49.602;8.722;2023-03-01T16:25:35;99893.44;;;17.90
78905;BMP280;68291;49.602;8.722;2023-03-01T16:28:08;99898.63;;;17.41
78905;BMP280;68291;49.602;8.722;2023-03-01T16:30:53;99905.81;;;16.99
78905;BMP280;68291;49.602;8.722;2023-03-01T16:33:37;99898.78;;;16.61
78905;BMP280;68291;49.602;8.722;2023-03-01T16:36:35;99898.47;;;16.11
78905;BMP280;68291;49.602;8.722;2023-03-01T16:39:17;99907.53;;;15.63
78905;BMP280;68291;49.602;8.722;2023-03-01T16:42:00;99911.75;;;15.23
78905;BMP280;68291;49.602;8.722;2023-03-01T16:44:33;99915.66;;;14.85
78905;BMP280;68291;49.602;8.722;2023-03-01T16:47:33;99919.94;;;14.40
78905;BMP280;68291;49.602;8.722;2023-03-01T16:50:26;99927.16;;;14.03
78905;BMP280;68291;49.602;8.722;2023-03-01T16:53:31;99921.13;;;13.71
78905;BMP280;68291;49.602;8.722;2023-03-01T16:56:19;99919.56;;;13.35
78905;BMP280;68291;49.602;8.722;2023-03-01T16:58:52;99916.75;;;13.06
78905;BMP280;68291;49.602;8.722;2023-03-01T17:01:43;99917.25;;;12.79
78905;BMP280;68291;49.602;8.722;2023-03-01T17:04:29;99912.44;;;12.53
78905;BMP280;68291;49.602;8.722;2023-03-01T17:07:13;99920.81;;;12.22
78905;BMP280;68291;49.602;8.722;2023-03-01T17:09:52;99921.09;;;11.97
78905;BMP280;68291;49.602;8.722;2023-03-01T17:12:28;99923.72;;;11.78
78905;BMP280;68291;49.602;8.722;2023-03-01T17:15:01;99928.91;;;11.58
78905;BMP280;68291;49.602;8.722;2023-03-01T17:17:57;99924.28;;;11.25
78905;BMP280;68291;49.602;8.722;2023-03-01T17:20:48;99933.16;;;10.98
78905;BMP280;68291;49.602;8.722;2023-03-01T17:23:40;99923.84;;;10.75
78905;BMP280;68291;49.602;8.722;2023-03-01T17:26:29;99930.06;;;10.48
78905;BMP280;68291;49.602;8.722;2023-03-01T17:29:19;99931.84;;;10.25
78905;BMP280;68291;49.602;8.722;2023-03-01T17:32:21;99922.44;;;10.01
78905;BMP280;68291;49.602;8.722;2023-03-01T17:34:56;99923.84;;;9.86
78905;BMP280;68291;49.602;8.722;2023-03-01T17:37:27;99920.16;;;9.70
78905;BMP280;68291;49.602;8.722;2023-03-01T17:40:02;99915.63;;;9.54
78905;BMP280;68291;49.602;8.722;2023-03-01T17:42:51;99909.06;;;9.45
78905;BMP280;68291;49.602;8.722;2023-03-01T17:45:35;99908.31;;;9.42
78905;BMP280;68291;49.602;8.722;2023-03-01T17:48:19;99905.25;;;9.32
78905;BMP280;68291;49.602;8.722;2023-03-01T17:51:15;99906.53;;;9.20
78905;BMP280;68291;49.602;8.722;2023-03-01T17:54:14;99906.16;;;9.06
78905;BMP280;68291;49.602;8.722;2023-03-01T17:56:47;99909.13;;;8.94
78905;BMP280;68291;49.602;8.722;2023-03-01T17:59:44;99911.22;;;8.83
78905;BMP280;68291;49.602;8.722;2023-03-01T18:02:41;99915.06;;;8.70
78905;BMP280;68291;49.602;8.722;2023-03-01T18:05:32;99909.66;;;8.52
78905;BMP280;68291;49.602;8.722;2023-03-01T18:08:15;99926.09;;;8.47
78905;BMP280;68291;49.602;8.722;2023-03-01T18:11:01;99923.75;;;8.39
78905;BMP280;68291;49.602;8.722;2023-03-01T18:13:42;99923.22;;;8.28
78905;BMP280;68291;49.602;8.722;2023-03-01T18:16:38;99926.81;;;8.23
78905;BMP280;68291;49.602;8.722;2023-03-01T18:19:14;99928.63;;;8.19
78905;BMP280;68291;49.602;8.722;2023-03-01T18:22:01;99933.72;;;8.21
78905;BMP280;68291;49.602;8.722;2023-03-01T18:24:37;99934.44;;;8.24
78905;BMP280;68291;49.602;8.722;2023-03-01T18:27:11;99925.06;;;8.25
78905;BMP280;68291;49.602;8.722;2023-03-01T18:29:51;99928.50;;;8.24
78905;BMP280;68291;49.602;8.722;2023-03-01T18:32:46;99928.66;;;8.18
78905;BMP280;68291;49.602;8.722;2023-03-01T18:35:26;99933.78;;;8.18
78905;BMP280;68291;49.602;8.722;2023-03-01T18:38:17;99938.06;;;8.19
78905;BMP280;68291;49.602;8.722;2023-03-01T18:41:07;99933.09;;;8.13
78905;BMP280;68291;49.602;8.722;2023-03-01T18:44:04;99939.19;;;8.09
78905;BMP280;68291;49.602;8.722;2023-03-01T18:46:44;99935.78;;;8.07
78905;BMP280;68291;49.602;8.722;2023-03-01T18:49:24;99945.38;;;8.01
78905;BMP280;68291;49.602;8.722;2023-03-01T18:52:13;99948.97;;;7.95
78905;BMP280;68291;49.602;8.722;2023-03-01T18:54:54;99955.09;;;7.90
78905;BMP280;68291;49.602;8.722;2023-03-01T18:57:42;99958.69;;;7.84
78905;BMP280;68291;49.602;8.722;2023-03-01T19:00:34;99956.38;;;7.76
78905;BMP280;68291;49.602;8.722;2023-03-01T19:03:22;99959.22;;;7.67
78905;BMP280;68291;49.602;8.722;2023-03-01T19:05:57;99959.38;;;7.61
78905;BMP280;68291;49.602;8.722;2023-03-01T19:08:36;99955.16;;;7.58
78905;BMP280;68291;49.602;8.722;2023-03-01T19:11:24;99957.75;;;7.57
78905;BMP280;68291;49.602;8.722;2023-03-01T19:14:20;99952.63;;;7.57
78905;BMP280;68291;49.602;8.722;2023-03-01T19:17:09;99964.53;;;7.58
78905;BMP280;68291;49.602;8.722;2023-03-01T19:19:47;99959.38;;;7.61
78905;BMP280;68291;49.602;8.722;2023-03-01T19:23:04;99959.38;;;7.61
78905;BMP280;68291;49.602;8.722;2023-03-01T19:25:59;99962.06;;;7.55
78905;BMP280;68291;49.602;8.722;2023-03-01T19:28:31;99968.09;;;7.54
78905;BMP280;68291;49.602;8.722;2023-03-01T19:31:11;99959.41;;;7.58
78905;BMP280;68291;49.602;8.722;2023-03-01T19:33:57;99958.66;;;7.56
78905;BMP280;68291;49.602;8.722;2023-03-01T19:36:55;99958.94;;;7.46
78905;BMP280;68291;49.602;8.722;2023-03-01T19:39:51;99952.28;;;7.39
78905;BMP280;68291;49.602;8.722;2023-03-01T19:42:37;99947.44;;;7.28
78905;BMP280;68291;49.602;8.722;2023-03-01T19:45:19;99950.13;;;7.24
78905;BMP280;68291;49.602;8.722;2023-03-01T19:48:23;99945.03;;;7.22
78905;BMP280;68291;49.602;8.722;2023-03-01T19:51:06;99944.06;;;7.26
78905;BMP280;68291;49.602;8.722;2023-03-01T19:54:04;99948.34;;;7.26
78905;BMP280;68291;49.602;8.722;2023-03-01T19:56:47;99943.25;;;7.24
78905;BMP280;68291;49.602;8.722;2023-03-01T19:59:22;99945.78;;;7.26
78905;BMP280;68291;49.602;8.722;2023-03-01T20:02:22;99945.69;;;7.29
78905;BMP280;68291;49.602;8.722;2023-03-01T20:05:12;99944.69;;;7.34
78905;BMP280;68291;49.602;8.722;2023-03-01T20:07:55;99947.25;;;7.34
78905;BMP280;68291;49.602;8.722;2023-03-01T20:10:39;99945.56;;;7.35
78905;BMP280;68291;49.602;8.722;2023-03-01T20:13:31;99947.25;;;7.34
78905;BMP280;68291;49.602;8.722;2023-03-01T20:16:17;99946.38;;;7.35
78905;BMP280;68291;49.602;8.722;2023-03-01T20:19:01;99954.91;;;7.36
78905;BMP280;68291;49.602;8.722;2023-03-01T20:21:43;99963.38;;;7.39
78905;BMP280;68291;49.602;8.722;2023-03-01T20:24:31;99967.56;;;7.42
78905;BMP280;68291;49.602;8.722;2023-03-01T20:27:03;99962.31;;;7.46
78905;BMP280;68291;49.602;8.722;2023-03-01T20:30:00;99968.31;;;7.45
78905;BMP280;68291;49.602;8.722;2023-03-01T20:32:57;99960.56;;;7.48
78905;BMP280;68291;49.602;8.722;2023-03-01T20:35:43;99969.75;;;7.55
78905;BMP280;68291;49.602;8.722;2023-03-01T20:38:22;99957.75;;;7.57
78905;BMP280;68291;49.602;8.722;2023-03-01T20:41:07;99954.38;;;7.55
78905;BMP280;68291;49.602;8.722;2023-03-01T20:43:42;99954.34;;;7.56
78905;BMP280;68291;49.602;8.722;2023-03-01T20:46:44;99949.16;;;7.58
78905;BMP280;68291;49.602;8.722;2023-03-01T20:49:32;99952.72;;;7.54
78905;BMP280;68291;49.602;8.722;2023-03-01T20:52:11;99945.84;;;7.56
78905;BMP280;68291;49.602;8.722;2023-03-01T20:54:45;99949.97;;;7.60
78905;BMP280;68291;49.602;8.722;2023-03-01T20:57:41;99950.06;;;7.57
78905;BMP280;68291;49.602;8.722;2023-03-01T21:00:21;99951.72;;;7.58
78905;BMP280;68291;49.602;8.722;2023-03-01T21:03:27;99945.03;;;7.54
78905;BMP280;68291;49.602;8.722;2023-03-01T21:06:10;99954.50;;;7.50
78905;BMP280;68291;49.602;8.722;2023-03-01T21:08:58;99960.53;;;7.50
78905;BMP280;68291;49.602;8.722;2023-03-01T21:11:30;99953.75;;;7.47
78905;BMP280;68291;49.602;8.722;2023-03-01T21:14:16;99949.66;;;7.40
78905;BMP280;68291;49.602;8.722;2023-03-01T21:17:16;99955.72;;;7.38
78905;BMP280;68291;49.602;8.722;2023-03-01T21:20:11;99946.38;;;7.35
78905;BMP280;68291;49.602;8.722;2023-03-01T21:23:02;99950.72;;;7.32
78905;BMP280;68291;49.602;8.722;2023-03-01T21:25:37;99943.16;;;7.29
78905;BMP280;68291;49.602;8.722;2023-03-01T21:28:27;99945.78;;;7.26
78905;BMP280;68291;49.602;8.722;2023-03-01T21:31:14;99953.50;;;7.24
78905;BMP280;68291;49.602;8.722;2023-03-01T21:33:56;99948.41;;;7.23
78905;BMP280;68291;49.602;8.722;2023-03-01T21:36:44;99940.81;;;7.20
78905;BMP280;68291;49.602;8.722;2023-03-01T21:39:19;99942.59;;;7.16
78905;BMP280;68291;49.602;8.722;2023-03-01T21:41:57;99943.72;;;7.07
78905;BMP280;68291;49.602;8.722;2023-03-01T21:44:37;99936.16;;;7.02
78905;BMP280;68291;49.602;8.722;2023-03-01T21:47:23;99942.16;;;7.00
78905;BMP280;68291;49.602;8.722;2023-03-01T21:50:05;99934.59;;;6.95
78905;BMP280;68291;49.602;8.722;2023-03-01T21:52:40;99943.31;;;6.88
78905;BMP280;68291;49.602;8.722;2023-03-01T21:55:11;99941.72;;;6.84
78905;BMP280;68291;49.602;8.722;2023-03-01T21:58:08;99934.16;;;6.80
78905;BMP280;68291;49.602;8.722;2023-03-01T22:00:55;99924.78;;;6.79
78905;BMP280;68291;49.602;8.722;2023-03-01T22:03:39;99929.97;;;6.76
78905;BMP280;68291;49.602;8.722;2023-03-01T22:06:33;99926.56;;;6.76
78905;BMP280;68291;49.602;8.722;2023-03-01T22:09:29;99922.28;;;6.76
78905;BMP280;68291;49.602;8.722;2023-03-01T22:12:23;99924.00;;;6.77
78905;BMP280;68291;49.602;8.722;2023-03-01T22:15:20;99924.78;;;6.79
78905;BMP280;68291;49.602;8.722;2023-03-01T22:17:52;99920.53;;;6.78
78905;BMP280;68291;49.602;8.722;2023-03-01T22:20:32;99913.75;;;6.77
78905;BMP280;68291;49.602;8.722;2023-03-01T22:23:12;99911.22;;;6.76
78905;BMP280;68291;49.602;8.722;2023-03-01T22:26:21;99908.69;;;6.74
78905;BMP280;68291;49.602;8.722;2023-03-01T22:29:13;99910.47;;;6.72
78905;BMP280;68291;49.602;8.722;2023-03-01T22:32:00;99924.13;;;6.71
78905;BMP280;68291;49.602;8.722;2023-03-01T22:34:38;99928.38;;;6.72
78905;BMP280;68291;49.602;8.722;2023-03-01T22:37:31;99930.94;;;6.72
78905;BMP280;68291;49.602;8.722;2023-03-01T22:40:15;99934.44;;;6.68
78905;BMP280;68291;49.602;8.722;2023-03-01T22:43:04;99931.13;;;6.63
78905;BMP280;68291;49.602;8.722;2023-03-01T22:45:51;99927.81;;;6.60
78905;BMP280;68291;49.602;8.722;2023-03-01T22:48:35;99931.25;;;6.59
78905;BMP280;68291;49.602;8.722;2023-03-01T22:51:18;99930.50;;;6.54
78905;BMP280;68291;49.602;8.722;2023-03-01T22:54:19;99931.56;;;6.46
78905;BMP280;68291;49.602;8.722;2023-03-01T22:56:57;99931.50;;;6.48
78905;BMP280;68291;49.602;8.722;2023-03-01T22:59:45;99933.19;;;6.49
78905;BMP280;68291;49.602;8.722;2023-03-01T23:02:34;99928.97;;;6.47
78905;BMP280;68291;49.602;8.722;2023-03-01T23:05:18;99924.78;;;6.45
78905;BMP280;68291;49.602;8.722;2023-03-01T23:08:01;99933.38;;;6.41
78905;BMP280;68291;49.602;8.722;2023-03-01T23:10:44;99937.69;;;6.39
78905;BMP280;68291;49.602;8.722;2023-03-01T23:13:30;99930.88;;;6.38
78905;BMP280;68291;49.602;8.722;2023-03-01T23:16:34;99924.13;;;6.35
78905;BMP280;68291;49.602;8.722;2023-03-01T23:19:24;99923.38;;;6.32
78905;BMP280;68291;49.602;8.722;2023-03-01T23:22:10;99926.84;;;6.29
78905;BMP280;68291;49.602;8.722;2023-03-01T23:24:52;99934.56;;;6.26
78905;BMP280;68291;49.602;8.722;2023-03-01T23:27:31;99927.81;;;6.22
78905;BMP280;68291;49.602;8.722;2023-03-01T23:30:10;99928.72;;;6.21
78905;BMP280;68291;49.602;8.722;2023-03-01T23:32:51;99928.81;;;6.17
78905;BMP280;68291;49.602;8.722;2023-03-01T23:35:39;99921.16;;;6.15
78905;BMP280;68291;49.602;8.722;2023-03-01T23:38:35;99927.09;;;6.16
78905;BMP280;68291;49.602;8.722;2023-03-01T23:41:31;99931.38;;;6.15
78905;BMP280;68291;49.602;8.722;2023-03-01T23:44:26;99923.81;;;6.11
78905;BMP280;68291;49.602;8.722;2023-03-01T23:46:58;99930.69;;;6.09
78905;BMP280;68291;49.602;8.722;2023-03-01T23:50:10;99925.63;;;6.06
78905;BMP280;68291;49.602;8.722;2023-03-01T23:52:47;99912.81;;;6.08
78905;BMP280;68291;49.602;8.722;2023-03-01T23:55:49;99921.34;;;6.08
78905;BMP280;68291;49.602;8.722;2023-03-01T23:58:24;99915.34;;;6.09
